createdAt,value
2023-12-11T00:01:11.302Z,100.00
2023-12-11T00:04:00.102Z,100.00
2023-12-11T00:06:48.702Z,100.00
2023-12-11T00:09:37.635Z,100.00
2023-12-11T00:12:26.399Z,100.00
2023-12-11T00:15:14.985Z,100.00
2023-12-11T00:18:03.757Z,100.00
2023-12-11T00:20:54.725Z,100.00
2023-12-11T00:23:43.518Z,100.00
2023-12-11T00:26:32.042Z,100.00
2023-12-11T00:29:20.612Z,100.00
2023-12-11T00:32:09.718Z,100.00
2023-12-11T00:34:58.459Z,100.00
2023-12-11T00:37:47.294Z,100.00
2023-12-11T00:40:35.777Z,100.00
2023-12-11T00:43:24.341Z,100.00
2023-12-11T00:46:15.922Z,100.00
2023-12-11T00:49:04.700Z,100.00
2023-12-11T00:51:56.158Z,100.00
2023-12-11T00:54:44.959Z,100.00
2023-12-11T00:57:33.809Z,100.00
2023-12-11T01:00:22.576Z,99.98
2023-12-11T01:03:11.327Z,99.99
2023-12-11T01:06:00.586Z,100.00
2023-12-11T01:08:49.242Z,100.00
2023-12-11T01:11:37.824Z,100.00
2023-12-11T01:14:26.384Z,100.00
2023-12-11T01:17:37.150Z,100.00
2023-12-11T01:20:23.513Z,100.00
2023-12-11T01:23:12.174Z,100.00
2023-12-11T01:26:03.404Z,100.00
2023-12-11T01:28:52.997Z,100.00
2023-12-11T01:31:41.516Z,100.00
2023-12-11T01:34:30.139Z,100.00
2023-12-11T01:37:19.690Z,100.00
2023-12-11T01:40:09.237Z,100.00
2023-12-11T01:43:18.235Z,100.00
2023-12-11T01:46:15.132Z,100.00
2023-12-11T01:49:04.303Z,100.00
2023-12-11T01:51:53.409Z,100.00
2023-12-11T01:54:42.516Z,100.00
2023-12-11T01:57:31.836Z,100.00
2023-12-11T02:05:26.144Z,100.00
2023-12-11T02:08:16.371Z,100.00
2023-12-11T02:11:04.906Z,100.00
2023-12-11T02:13:53.457Z,100.00
2023-12-11T02:16:44.504Z,100.00
2023-12-11T02:19:33.302Z,100.00
2023-12-11T02:22:22.529Z,100.00
2023-12-11T02:25:12.230Z,100.00
2023-12-11T02:28:00.880Z,100.00
2023-12-11T02:30:52.526Z,100.00
2023-12-11T02:33:42.507Z,100.00
2023-12-11T02:36:31.766Z,100.00
2023-12-11T02:39:20.427Z,100.00
2023-12-11T02:42:08.955Z,100.00
2023-12-11T02:44:57.514Z,100.00
2023-12-11T02:47:46.362Z,100.00
2023-12-11T02:50:35.647Z,100.00
2023-12-11T02:53:24.303Z,100.00
2023-12-11T02:56:13.809Z,100.00
2023-12-11T02:59:02.785Z,100.00
2023-12-11T03:01:51.479Z,100.00
2023-12-11T03:04:40.147Z,100.00
2023-12-11T03:07:29.128Z,100.00
2023-12-11T03:10:18.040Z,100.00
2023-12-11T03:13:06.630Z,100.00
2023-12-11T03:15:55.297Z,100.00
2023-12-11T03:18:44.016Z,100.00
2023-12-11T03:21:32.706Z,100.00
2023-12-11T03:24:21.351Z,100.00
2023-12-11T03:27:10.194Z,100.00
2023-12-11T03:29:58.670Z,100.00
2023-12-11T03:32:47.246Z,100.00
2023-12-11T03:35:36.110Z,100.00
2023-12-11T03:38:24.850Z,100.00
2023-12-11T03:41:13.450Z,100.00
2023-12-11T03:44:02.083Z,100.00
2023-12-11T03:46:50.822Z,100.00
2023-12-11T03:49:39.728Z,100.00
2023-12-11T03:52:28.359Z,100.00
2023-12-11T03:55:17.041Z,100.00
2023-12-11T03:58:05.709Z,100.00
2023-12-11T04:00:54.420Z,100.00
2023-12-11T04:03:43.086Z,100.00
2023-12-11T04:06:31.890Z,100.00
2023-12-11T04:09:20.779Z,100.00
2023-12-11T04:12:09.298Z,100.00
2023-12-11T04:14:58.113Z,100.00
2023-12-11T04:17:46.713Z,100.00
2023-12-11T04:20:35.503Z,100.00
2023-12-11T04:23:24.660Z,99.97
2023-12-11T04:26:14.454Z,100.00
2023-12-11T04:29:05.302Z,99.98
2023-12-11T04:31:54.109Z,100.00
2023-12-11T04:34:42.697Z,100.00
2023-12-11T04:37:31.576Z,99.98
2023-12-11T04:40:20.350Z,100.00
2023-12-11T04:43:09.213Z,100.00
2023-12-11T04:45:57.884Z,100.00
2023-12-11T04:48:46.747Z,100.00
2023-12-11T04:51:35.450Z,100.00
2023-12-11T04:54:24.048Z,100.00
2023-12-11T04:57:12.727Z,100.00
2023-12-11T05:00:01.510Z,100.00
2023-12-11T05:02:50.087Z,100.00
2023-12-11T05:05:38.712Z,100.00
2023-12-11T05:08:30.217Z,100.00
2023-12-11T05:11:19.306Z,100.00
2023-12-11T05:14:08.132Z,100.00
2023-12-11T05:16:56.726Z,100.00
2023-12-11T05:19:45.358Z,100.00
2023-12-11T05:22:34.009Z,100.00
2023-12-11T05:25:22.623Z,100.00
2023-12-11T05:28:14.700Z,100.00
2023-12-11T05:31:03.492Z,100.00
2023-12-11T05:33:52.263Z,100.00
2023-12-11T05:36:40.924Z,100.00
2023-12-11T05:39:29.578Z,100.00
2023-12-11T05:42:18.620Z,100.00
2023-12-11T05:45:07.927Z,100.00
2023-12-11T05:47:56.724Z,100.00
2023-12-11T05:50:45.776Z,100.00
2023-12-11T05:53:34.319Z,100.00
2023-12-11T05:56:23.099Z,100.00
2023-12-11T05:59:11.988Z,100.00
2023-12-11T06:02:00.570Z,100.00
2023-12-11T06:04:49.169Z,100.00
2023-12-11T06:07:37.798Z,100.00
2023-12-11T06:10:26.475Z,100.00
2023-12-11T06:13:15.143Z,100.00
2023-12-11T06:16:04.118Z,100.00
2023-12-11T06:18:53.022Z,99.99
2023-12-11T06:21:42.372Z,99.99
2023-12-11T06:24:31.055Z,99.89
2023-12-11T06:27:19.600Z,99.82
2023-12-11T06:30:08.775Z,99.82
2023-12-11T06:32:57.716Z,99.70
2023-12-11T06:35:46.280Z,99.65
2023-12-11T06:38:35.469Z,99.63
2023-12-11T06:41:24.200Z,99.55
2023-12-11T06:44:14.214Z,99.50
2023-12-11T06:47:02.786Z,99.47
2023-12-11T06:49:51.529Z,99.40
2023-12-11T06:52:40.208Z,99.32
2023-12-11T06:55:28.995Z,99.22
2023-12-11T06:58:17.602Z,99.20
2023-12-11T07:01:10.266Z,99.26
2023-12-11T07:04:00.932Z,99.18
2023-12-11T07:06:49.735Z,99.04
2023-12-11T07:09:38.416Z,98.99
2023-12-11T07:12:26.993Z,98.88
2023-12-11T07:15:15.643Z,98.70
2023-12-11T07:18:04.306Z,98.46
2023-12-11T07:20:53.146Z,98.37
2023-12-11T07:23:41.888Z,98.30
2023-12-11T07:26:30.535Z,98.16
2023-12-11T07:29:19.120Z,97.95
2023-12-11T07:32:08.149Z,97.81
2023-12-11T07:34:59.203Z,97.73
2023-12-11T07:37:47.899Z,97.37
2023-12-11T07:40:36.441Z,97.22
2023-12-11T07:43:25.498Z,97.22
2023-12-11T07:46:23.118Z,97.16
2023-12-11T07:49:15.257Z,97.05
2023-12-11T07:52:04.496Z,97.19
2023-12-11T07:54:53.114Z,97.34
2023-12-11T07:57:42.303Z,97.39
2023-12-11T08:00:31.409Z,97.27
2023-12-11T08:03:20.549Z,97.40
2023-12-11T08:06:12.526Z,97.42
2023-12-11T08:09:01.462Z,97.49
2023-12-11T08:11:51.024Z,97.45
2023-12-11T08:14:39.966Z,97.52
2023-12-11T08:17:28.920Z,97.38
2023-12-11T08:20:19.302Z,97.33
2023-12-11T08:23:08.392Z,97.38
2023-12-11T08:25:57.093Z,97.34
2023-12-11T08:28:46.796Z,97.30
2023-12-11T08:31:35.325Z,97.48
2023-12-11T08:34:23.973Z,97.47
2023-12-11T08:37:12.956Z,97.68
2023-12-11T08:40:02.086Z,97.33
2023-12-11T08:42:50.682Z,97.23
2023-12-11T08:45:39.863Z,97.09
2023-12-11T08:48:29.096Z,96.94
2023-12-11T08:51:19.566Z,96.68
2023-12-11T08:54:08.226Z,96.73
2023-12-11T08:56:56.761Z,96.76
2023-12-11T08:59:45.501Z,96.72
2023-12-11T09:02:34.123Z,96.70
2023-12-11T09:05:22.821Z,96.55
2023-12-11T09:08:11.429Z,96.70
2023-12-11T09:11:00.019Z,96.90
2023-12-11T09:13:48.694Z,96.76
2023-12-11T09:16:37.269Z,96.42
2023-12-11T09:19:35.838Z,96.25
2023-12-11T09:22:29.338Z,96.38
2023-12-11T09:25:18.120Z,96.62
2023-12-11T09:28:06.728Z,96.78
2023-12-11T09:30:55.760Z,96.75
2023-12-11T09:33:44.473Z,96.65
2023-12-11T09:36:33.215Z,96.35
2023-12-11T09:39:23.655Z,95.81
2023-12-11T09:42:14.398Z,95.19
2023-12-11T09:45:04.596Z,94.77
2023-12-11T09:48:04.804Z,94.43
2023-12-11T09:51:01.217Z,94.37
2023-12-11T09:53:53.115Z,93.92
2023-12-11T09:56:44.081Z,93.65
2023-12-11T09:59:32.732Z,93.74
2023-12-11T10:02:21.420Z,93.71
2023-12-11T10:05:11.713Z,93.62
2023-12-11T10:08:02.137Z,93.35
2023-12-11T10:10:50.767Z,93.41
2023-12-11T10:13:40.029Z,93.27
2023-12-11T10:16:33.637Z,92.94
2023-12-11T10:19:34.945Z,93.19
2023-12-11T10:22:27.892Z,93.04
2023-12-11T10:25:28.062Z,93.08
2023-12-11T10:28:19.127Z,92.93
2023-12-11T10:31:07.887Z,92.54
2023-12-11T10:33:56.877Z,92.43
2023-12-11T10:36:52.777Z,92.39
2023-12-11T10:39:55.175Z,92.27
2023-12-11T10:42:44.092Z,92.50
2023-12-11T10:45:36.140Z,92.42
2023-12-11T10:48:24.822Z,92.16
2023-12-11T10:51:14.376Z,92.16
2023-12-11T10:54:02.956Z,91.82
2023-12-11T10:56:53.474Z,91.70
2023-12-11T10:59:42.778Z,91.71
2023-12-11T11:02:32.360Z,91.64
2023-12-11T11:05:22.450Z,91.71
2023-12-11T11:08:41.460Z,91.54
2023-12-11T11:11:38.544Z,91.36
2023-12-11T11:14:48.367Z,91.35
2023-12-11T11:17:59.704Z,91.29
2023-12-11T11:21:08.189Z,91.29
2023-12-11T11:23:56.755Z,91.28
2023-12-11T11:26:45.353Z,91.36
2023-12-11T11:29:44.846Z,91.25
2023-12-11T11:32:56.857Z,91.12
2023-12-11T11:35:54.006Z,91.05
2023-12-11T11:38:54.504Z,90.78
2023-12-11T11:41:44.486Z,90.87
2023-12-11T11:44:33.082Z,90.67
2023-12-11T11:47:21.992Z,90.75
2023-12-11T11:50:15.179Z,90.46
2023-12-11T11:53:12.485Z,90.23
2023-12-11T11:56:02.767Z,90.25
2023-12-11T11:58:51.433Z,90.29
2023-12-11T12:01:57.104Z,90.35
2023-12-11T12:04:45.807Z,90.48
2023-12-11T12:07:34.640Z,90.41
2023-12-11T12:10:23.372Z,90.28
2023-12-11T12:13:12.156Z,90.34
2023-12-11T12:16:01.069Z,90.18
2023-12-11T12:18:51.229Z,90.04
2023-12-11T12:21:55.506Z,90.18
2023-12-11T12:24:49.742Z,90.14
2023-12-11T12:27:38.829Z,89.69
2023-12-11T12:30:28.827Z,89.34
2023-12-11T12:33:19.760Z,89.13
2023-12-11T12:36:08.673Z,89.09
2023-12-11T12:38:57.561Z,89.03
2023-12-11T12:41:50.931Z,89.16
2023-12-11T12:44:41.134Z,89.14
2023-12-11T12:47:30.419Z,88.98
2023-12-11T12:50:21.376Z,88.93
2023-12-11T12:53:15.203Z,88.92
2023-12-11T12:56:16.603Z,88.66
2023-12-11T12:59:06.819Z,88.71
2023-12-11T13:01:55.539Z,88.51
2023-12-11T13:04:55.447Z,88.53
2023-12-11T13:07:58.037Z,88.52
2023-12-11T13:10:57.818Z,88.53
2023-12-11T13:13:54.766Z,88.71
2023-12-11T13:16:48.036Z,88.62
2023-12-11T13:19:37.799Z,88.69
2023-12-11T13:22:26.991Z,88.81
2023-12-11T13:25:16.794Z,88.68
2023-12-11T13:28:05.757Z,88.57
2023-12-11T13:30:54.396Z,88.44
2023-12-11T13:33:43.229Z,88.52
2023-12-11T13:36:32.372Z,88.37
2023-12-11T13:39:21.239Z,88.51
2023-12-11T13:42:09.798Z,88.55
2023-12-11T13:44:59.885Z,88.57
2023-12-11T13:47:48.814Z,88.54
2023-12-11T13:50:37.453Z,88.52
2023-12-11T13:53:26.847Z,88.52
2023-12-11T13:56:15.524Z,88.76
2023-12-11T13:59:04.910Z,88.64
2023-12-11T14:01:53.587Z,88.90
2023-12-11T14:04:42.820Z,88.93
2023-12-11T14:07:32.196Z,89.31
2023-12-11T14:10:21.246Z,89.50
2023-12-11T14:13:14.608Z,89.54
2023-12-11T14:16:03.530Z,89.65
2023-12-11T14:18:52.825Z,89.76
2023-12-11T14:21:42.481Z,89.81
2023-12-11T14:24:31.205Z,89.84
2023-12-11T14:27:20.039Z,89.79
2023-12-11T14:30:09.185Z,89.82
2023-12-11T14:32:57.802Z,89.79
2023-12-11T14:35:47.836Z,89.81
2023-12-11T14:38:36.484Z,89.84
2023-12-11T14:41:25.036Z,89.78
2023-12-11T14:44:14.331Z,89.72
2023-12-11T14:47:03.048Z,89.57
2023-12-11T14:49:52.725Z,89.57
2023-12-11T14:52:41.592Z,89.70
2023-12-11T14:55:30.285Z,89.70
2023-12-11T14:58:19.373Z,89.64
2023-12-11T15:01:08.086Z,89.58
2023-12-11T15:03:57.028Z,89.54
2023-12-11T15:06:45.757Z,89.54
2023-12-11T15:09:35.909Z,89.43
2023-12-11T15:12:24.749Z,89.53
2023-12-11T15:15:13.614Z,89.57
2023-12-11T15:18:02.395Z,89.62
2023-12-11T15:20:50.968Z,89.46
2023-12-11T15:23:39.522Z,89.62
2023-12-11T15:26:28.515Z,89.52
2023-12-11T15:29:17.062Z,89.54
2023-12-11T15:32:06.270Z,89.44
2023-12-11T15:34:55.005Z,89.47
2023-12-11T15:37:43.867Z,89.57
2023-12-11T15:40:32.745Z,89.67
2023-12-11T15:43:21.394Z,89.53
2023-12-11T15:46:11.327Z,89.44
2023-12-11T15:49:01.548Z,89.47
2023-12-11T15:51:52.883Z,89.47
2023-12-11T15:54:44.504Z,89.61
2023-12-11T15:57:33.273Z,89.76
2023-12-11T16:00:22.367Z,89.80
2023-12-11T16:03:11.086Z,89.92
2023-12-11T16:06:00.071Z,89.91
2023-12-11T16:08:48.757Z,89.71
2023-12-11T16:11:37.445Z,89.87
2023-12-11T16:14:25.962Z,89.86
2023-12-11T16:17:14.817Z,90.12
2023-12-11T16:20:05.455Z,89.88
2023-12-11T16:22:54.518Z,90.01
2023-12-11T16:25:51.060Z,90.06
2023-12-11T16:28:47.952Z,90.18
2023-12-11T16:31:36.563Z,90.38
2023-12-11T16:34:25.653Z,90.52
2023-12-11T16:37:14.528Z,90.47
2023-12-11T16:40:07.584Z,90.63
2023-12-11T16:42:56.604Z,90.66
2023-12-11T16:45:45.922Z,90.77
2023-12-11T16:48:36.854Z,90.78
2023-12-11T16:51:25.470Z,90.76
2023-12-11T16:54:14.072Z,90.82
2023-12-11T16:57:02.775Z,90.91
2023-12-11T16:59:51.305Z,90.98
2023-12-11T17:02:39.926Z,91.18
2023-12-11T17:05:28.887Z,91.16
2023-12-11T17:08:17.510Z,91.46
2023-12-11T17:11:06.102Z,91.67
2023-12-11T17:13:54.657Z,91.84
2023-12-11T17:16:43.388Z,92.03
2023-12-11T17:19:32.114Z,92.18
2023-12-11T17:22:21.878Z,92.26
2023-12-11T17:25:10.633Z,92.44
2023-12-11T17:27:59.299Z,92.61
2023-12-11T17:30:53.044Z,92.69
2023-12-11T17:33:42.120Z,92.85
2023-12-11T17:36:30.709Z,93.07
2023-12-11T17:39:19.310Z,93.17
2023-12-11T17:42:08.002Z,93.31
2023-12-11T17:44:56.787Z,93.57
2023-12-11T17:47:45.496Z,93.62
2023-12-11T17:50:34.090Z,93.75
2023-12-11T17:53:22.697Z,93.93
2023-12-11T17:56:12.562Z,94.02
2023-12-11T17:59:01.281Z,93.96
2023-12-11T18:01:49.917Z,94.06
2023-12-11T18:04:41.875Z,94.22
2023-12-11T18:07:30.585Z,94.29
2023-12-11T18:10:19.904Z,94.27
2023-12-11T18:13:08.582Z,94.28
2023-12-11T18:15:57.146Z,94.41
2023-12-11T18:18:45.868Z,94.55
2023-12-11T18:21:34.567Z,94.28
2023-12-11T18:24:23.159Z,94.31
2023-12-11T18:27:11.685Z,94.43
2023-12-11T18:30:00.593Z,94.46
2023-12-11T18:32:49.278Z,94.48
2023-12-11T18:35:38.202Z,94.48
2023-12-11T18:38:26.913Z,94.69
2023-12-11T18:41:27.363Z,94.80
2023-12-11T18:44:16.044Z,94.99
2023-12-11T18:47:04.862Z,95.10
2023-12-11T18:49:53.931Z,95.35
2023-12-11T18:52:49.468Z,95.22
2023-12-11T18:55:38.041Z,95.45
2023-12-11T18:58:29.487Z,95.81
2023-12-11T19:01:21.820Z,95.78
2023-12-11T19:04:10.945Z,95.89
2023-12-11T19:06:59.656Z,95.88
2023-12-11T19:09:48.587Z,96.05
2023-12-11T19:12:37.148Z,96.26
2023-12-11T19:15:26.148Z,96.23
2023-12-11T19:18:14.926Z,96.27
2023-12-11T19:21:03.632Z,96.31
2023-12-11T19:23:52.755Z,96.36
2023-12-11T19:26:41.806Z,96.43
2023-12-11T19:29:30.490Z,96.35
2023-12-11T19:32:20.793Z,96.67
2023-12-11T19:35:09.476Z,96.78
2023-12-11T19:37:58.054Z,97.06
2023-12-11T19:40:46.745Z,97.05
2023-12-11T19:43:35.565Z,97.21
2023-12-11T19:46:24.293Z,97.58
2023-12-11T19:49:13.112Z,97.62
2023-12-11T19:52:01.794Z,97.99
2023-12-11T19:54:50.578Z,98.09
2023-12-11T19:57:39.896Z,98.00
2023-12-11T20:00:28.665Z,98.00
2023-12-11T20:03:17.309Z,97.96
2023-12-11T20:06:06.383Z,97.93
2023-12-11T20:08:55.304Z,97.93
2023-12-11T20:11:44.927Z,97.75
2023-12-11T20:14:34.428Z,97.77
2023-12-11T20:17:23.183Z,97.75
2023-12-11T20:20:12.232Z,97.58
2023-12-11T20:23:00.779Z,97.55
2023-12-11T20:25:49.288Z,97.61
2023-12-11T20:28:37.880Z,97.56
2023-12-11T20:31:27.371Z,97.65
2023-12-11T20:34:16.466Z,97.69
2023-12-11T20:37:05.485Z,97.61
2023-12-11T20:39:54.898Z,97.73
2023-12-11T20:42:43.774Z,97.82
2023-12-11T20:45:32.382Z,97.91
2023-12-11T20:48:21.139Z,98.03
2023-12-11T20:51:09.835Z,98.15
2023-12-11T20:53:58.365Z,98.29
2023-12-11T20:56:46.988Z,98.40
2023-12-11T20:59:35.554Z,98.45
2023-12-11T21:02:24.159Z,98.34
2023-12-11T21:05:12.854Z,98.50
2023-12-11T21:08:01.883Z,98.51
2023-12-11T21:10:50.477Z,98.62
2023-12-11T21:13:39.217Z,98.88
2023-12-11T21:16:28.194Z,98.93
2023-12-11T21:19:16.933Z,99.11
2023-12-11T21:22:05.562Z,99.10
2023-12-11T21:24:54.386Z,99.31
2023-12-11T21:27:42.996Z,99.21
2023-12-11T21:30:31.553Z,99.36
2023-12-11T21:33:20.871Z,99.41
2023-12-11T21:36:09.522Z,99.47
2023-12-11T21:38:59.152Z,99.64
2023-12-11T21:41:47.714Z,99.72
2023-12-11T21:44:36.337Z,99.55
2023-12-11T21:47:25.348Z,99.51
2023-12-11T21:50:14.606Z,99.52
2023-12-11T21:53:03.408Z,99.52
2023-12-11T21:55:51.958Z,99.70
2023-12-11T21:58:44.091Z,99.91
2023-12-11T22:01:35.118Z,99.86
2023-12-11T22:04:23.813Z,99.92
2023-12-11T22:07:14.851Z,100.00
2023-12-11T22:10:07.128Z,100.00
2023-12-11T22:12:55.704Z,100.00
2023-12-11T22:15:44.315Z,100.00
2023-12-11T22:18:32.937Z,100.00
2023-12-11T22:21:25.749Z,100.00
2023-12-11T22:24:15.623Z,100.00
2023-12-11T22:27:04.703Z,100.00
2023-12-11T22:29:53.255Z,100.00
2023-12-11T22:32:42.015Z,100.00
2023-12-11T22:35:30.606Z,100.00
2023-12-11T22:38:19.351Z,100.00
2023-12-11T22:41:08.002Z,100.00
2023-12-11T22:43:57.393Z,100.00
2023-12-11T22:46:46.514Z,100.00
2023-12-11T22:49:35.196Z,100.00
2023-12-11T22:52:23.855Z,100.00
2023-12-11T22:55:12.878Z,100.00
2023-12-11T22:58:13.457Z,100.00
2023-12-11T23:01:05.217Z,100.00
2023-12-11T23:03:54.666Z,100.00
2023-12-11T23:06:43.271Z,100.00
2023-12-11T23:09:31.892Z,100.00
2023-12-11T23:12:20.609Z,100.00
2023-12-11T23:15:09.786Z,100.00
2023-12-11T23:17:58.371Z,100.00
2023-12-11T23:20:47.019Z,100.00
2023-12-11T23:23:35.590Z,100.00
2023-12-11T23:26:25.323Z,100.00
2023-12-11T23:29:14.023Z,100.00
2023-12-11T23:32:02.641Z,100.00
2023-12-11T23:34:51.346Z,100.00
2023-12-11T23:37:40.161Z,100.00
2023-12-11T23:40:29.052Z,100.00
2023-12-11T23:43:17.978Z,100.00
2023-12-11T23:46:06.737Z,100.00
2023-12-11T23:48:55.521Z,100.00
2023-12-11T23:51:44.564Z,100.00
2023-12-11T23:54:33.165Z,100.00
2023-12-11T23:57:21.754Z,100.00
